Time;durP1;ratioP1;P1;durP2;ratioP2;P2;SDS_P1;SDS_P2;PMS_P1;PMS_P2;Temp;Humidity;BMP_temperature;BMP_pressure;BME280_temperature;BME280_humidity;BME280_pressure;Samples;Min_cycle;Max_cycle;Signal;HPM_P1;HPM_P2
2023/08/07 00:01:12;;;;;;;12.97;3.20;;;;;;;14.82;100.00;101247.00;5231591;28;20027;-74
2023/08/07 00:03:43;;;;;;;13.07;3.47;;;;;;;14.82;100.00;101253.09;5222583;28;20404;-77
2023/08/07 00:06:15;;;;;;;7.73;2.83;;;;;;;14.84;100.00;101253.00;5233554;28;20061;-78
2023/08/07 00:08:46;;;;;;;10.43;3.13;;;;;;;14.86;100.00;101256.38;5229799;28;20047;-80
2023/08/07 00:11:17;;;;;;;11.63;3.10;;;;;;;14.78;100.00;101245.50;5217578;28;20034;-81
2023/08/07 00:13:49;;;;;;;12.33;3.87;;;;;;;14.83;100.00;101248.69;5222932;28;20116;-78
2023/08/07 00:16:20;;;;;;;14.00;3.40;;;;;;;14.73;100.00;101244.03;5219440;28;20044;-77
2023/08/07 00:18:55;;;;;;;12.47;3.13;;;;;;;14.69;100.00;101247.84;5232401;28;20377;-75
2023/08/07 00:21:26;;;;;;;13.53;3.37;;;;;;;14.81;100.00;101261.97;5223762;28;20116;-75
2023/08/07 00:23:58;;;;;;;19.90;4.13;;;;;;;14.70;100.00;101267.97;5228470;28;20049;-78
2023/08/07 00:26:31;;;;;;;8.93;3.30;;;;;;;14.65;100.00;101267.47;5229898;28;20886;-76
2023/08/07 00:29:03;;;;;;;10.52;2.67;;;;;;;14.69;100.00;101257.53;5223399;28;20029;-75
2023/08/07 00:31:34;;;;;;;13.13;3.87;;;;;;;14.74;100.00;101272.09;5241976;28;20039;-78
2023/08/07 00:34:05;;;;;;;10.73;2.90;;;;;;;14.74;100.00;101282.63;5228932;28;20116;-78
2023/08/07 00:36:37;;;;;;;12.37;3.00;;;;;;;14.84;100.00;101287.28;5232425;28;20066;-76
2023/08/07 00:39:08;;;;;;;13.07;3.90;;;;;;;14.75;100.00;101276.41;5232751;28;20037;-75
2023/08/07 00:41:39;;;;;;;8.03;3.27;;;;;;;14.63;100.00;101264.09;5232605;28;20057;-77
2023/08/07 00:44:11;;;;;;;12.17;4.57;;;;;;;14.74;100.00;101272.09;5232461;28;20041;-77
2023/08/07 00:46:43;;;;;;;17.50;4.57;;;;;;;14.66;100.00;101263.88;5220197;28;20107;-79
2023/08/07 00:49:15;;;;;;;8.57;2.37;;;;;;;14.67;100.00;101270.84;5243137;28;20475;-78
2023/08/07 00:51:47;;;;;;;9.13;2.33;;;;;;;14.67;100.00;101288.44;5232680;28;20033;-77
2023/08/07 00:54:20;;;;;;;8.87;2.70;;;;;;;14.73;100.00;101285.38;5231688;28;20588;-77
2023/08/07 00:56:51;;;;;;;8.83;2.40;;;;;;;14.64;100.00;101286.88;5231251;28;20025;-77
2023/08/07 00:59:23;;;;;;;8.13;2.30;;;;;;;14.69;100.00;101279.50;5231716;28;20041;-75
2023/08/07 01:01:54;;;;;;;10.97;3.07;;;;;;;14.67;100.00;101264.72;5232124;28;20052;-75
2023/08/07 01:04:26;;;;;;;8.33;2.60;;;;;;;14.71;100.00;101276.75;5232630;28;20061;-76
2023/08/07 01:06:57;;;;;;;9.90;2.60;;;;;;;14.69;100.00;101268.09;5232918;28;20054;-77
2023/08/07 01:09:29;;;;;;;13.30;2.30;;;;;;;14.71;100.00;101272.31;5230940;28;20033;-77
2023/08/07 01:12:16;;;;;;;8.87;2.77;;;;;;;14.86;100.00;101261.66;5232724;28;20057;-75
2023/08/07 01:14:50;;;;;;;8.43;2.60;;;;;;;14.85;100.00;101283.69;5230915;28;20404;-73
2023/08/07 01:17:23;;;;;;;11.30;2.95;;;;;;;14.70;100.00;101275.88;5232605;28;20108;-74
2023/08/07 01:19:55;;;;;;;10.80;3.33;;;;;;;14.72;100.00;101279.25;5232533;28;20091;-76
2023/08/07 01:22:26;;;;;;;9.57;3.80;;;;;;;14.82;100.00;101289.19;5232480;28;20029;-78
2023/08/07 01:24:57;;;;;;;10.00;2.40;;;;;;;14.79;100.00;101281.44;5246972;28;20388;-79
2023/08/07 01:27:32;;;;;;;7.97;2.47;;;;;;;15.04;100.00;101290.28;5250927;28;20045;-78
2023/08/07 01:30:35;;;;;;;9.43;2.87;;;;;;;15.17;100.00;101298.19;5252525;28;20033;-77
2023/08/07 01:33:32;;;;;;;8.50;2.37;;;;;;;15.11;100.00;101296.81;5252483;28;20072;-78
2023/08/07 01:36:07;;;;;;;13.63;3.33;;;;;;;14.97;100.00;101303.94;5251342;28;20107;-76
2023/08/07 01:38:38;;;;;;;14.17;3.13;;;;;;;14.89;100.00;101298.34;5252650;28;20043;-78
2023/08/07 01:41:10;;;;;;;8.93;2.47;;;;;;;14.85;100.00;101299.53;5253273;28;20029;-79
2023/08/07 01:43:41;;;;;;;11.80;3.60;;;;;;;14.75;100.00;101292.22;5251770;28;20072;-78
2023/08/07 01:46:13;;;;;;;10.97;3.27;;;;;;;14.75;100.00;101300.13;5252774;28;20419;-78
2023/08/07 01:48:44;;;;;;;11.03;3.33;;;;;;;14.84;100.00;101306.59;5253258;28;20030;-77
2023/08/07 01:51:15;;;;;;;9.63;3.23;;;;;;;14.79;100.00;101297.28;5252070;28;20166;-75
2023/08/07 01:53:47;;;;;;;11.73;3.07;;;;;;;14.68;100.00;101287.50;5252876;28;20033;-74
2023/08/07 01:56:19;;;;;;;7.03;2.60;;;;;;;14.75;100.00;101305.41;5252686;28;20028;-74
2023/08/07 01:58:50;;;;;;;7.87;2.37;;;;;;;14.68;100.00;101298.06;5251626;28;20119;-79
2023/08/07 02:01:21;;;;;;;10.07;2.57;;;;;;;14.71;100.00;101311.00;5252744;28;20029;-78
2023/08/07 02:03:53;;;;;;;8.97;2.60;;;;;;;14.51;100.00;101306.19;5228117;28;20028;-78
2023/08/07 02:06:24;;;;;;;12.80;3.20;;;;;;;14.58;100.00;101309.22;5230710;28;20107;-78
2023/08/07 02:08:56;;;;;;;8.10;3.37;;;;;;;14.59;100.00;101313.53;5251070;28;20415;-76
2023/08/07 02:11:27;;;;;;;8.30;2.23;;;;;;;14.50;100.00;101307.09;5236821;28;20392;-78
2023/08/07 02:13:58;;;;;;;10.23;2.60;;;;;;;14.62;100.00;101315.13;5250156;28;20029;-79
2023/08/07 02:16:29;;;;;;;8.07;2.97;;;;;;;14.59;100.00;101308.25;5238789;28;20029;-78
2023/08/07 02:19:01;;;;;;;10.33;3.13;;;;;;;14.64;100.00;101313.25;5231170;28;20109;-76
2023/08/07 02:21:32;;;;;;;14.77;3.37;;;;;;;14.56;100.00;101323.44;5232272;28;20030;-77
2023/08/07 02:24:04;;;;;;;10.93;3.43;;;;;;;14.59;100.00;101321.44;5231053;28;20134;-76
2023/08/07 02:26:35;;;;;;;12.20;4.23;;;;;;;14.56;100.00;101320.81;5249244;28;20029;-77
2023/08/07 02:29:08;;;;;;;13.83;3.63;;;;;;;14.45;100.00;101301.31;5250101;28;20676;-79
2023/08/07 02:31:40;;;;;;;12.93;3.13;;;;;;;14.57;100.00;101312.81;5235784;28;20182;-77
2023/08/07 02:34:11;;;;;;;15.30;4.40;;;;;;;14.50;100.00;101311.56;5252081;28;20120;-78
2023/08/07 02:36:42;;;;;;;9.93;3.33;;;;;;;14.49;100.00;101305.44;5241166;28;20033;-78
2023/08/07 02:39:14;;;;;;;8.23;3.20;;;;;;;14.55;100.00;101306.81;5231344;28;20061;-79
2023/08/07 02:41:46;;;;;;;11.23;2.67;;;;;;;14.56;100.00;101313.75;5231595;28;20040;-78
2023/08/07 02:44:18;;;;;;;12.47;3.33;;;;;;;14.64;100.00;101302.69;5230321;28;20121;-79
2023/08/07 02:46:49;;;;;;;10.90;3.37;;;;;;;14.62;100.00;101296.69;5248190;28;20056;-74
2023/08/07 02:49:20;;;;;;;13.23;3.53;;;;;;;14.50;100.00;101299.22;5246496;28;20071;-76
2023/08/07 02:51:52;;;;;;;11.17;4.13;;;;;;;14.66;100.00;101300.78;5255666;28;20033;-75
2023/08/07 02:54:23;;;;;;;10.57;2.97;;;;;;;14.69;100.00;101305.84;5255666;28;20033;-78
2023/08/07 02:56:56;;;;;;;12.63;3.83;;;;;;;14.70;100.00;101312.78;5255220;28;20067;-74
2023/08/07 02:59:28;;;;;;;15.73;3.90;;;;;;;14.85;100.00;101302.97;5254623;28;20036;-79
2023/08/07 03:01:59;;;;;;;14.27;3.77;;;;;;;14.80;100.00;101288.44;5247874;28;20460;-74
2023/08/07 03:04:30;;;;;;;10.30;2.73;;;;;;;14.70;100.00;101291.72;5234862;28;20029;-75
2023/08/07 03:07:02;;;;;;;10.53;3.67;;;;;;;14.75;100.00;101305.41;5234699;28;20046;-78
2023/08/07 03:09:33;;;;;;;11.77;3.43;;;;;;;14.89;100.00;101306.25;5235285;28;20037;-78
2023/08/07 03:12:05;;;;;;;12.47;3.20;;;;;;;14.64;100.00;101314.06;5233807;28;20069;-75
2023/08/07 03:14:36;;;;;;;10.60;3.57;;;;;;;14.60;100.00;101312.59;5233946;28;20033;-77
2023/08/07 03:17:08;;;;;;;13.87;3.60;;;;;;;14.72;100.00;101312.69;5234187;28;20029;-78
2023/08/07 03:19:42;;;;;;;9.63;3.00;;;;;;;14.79;100.00;101306.03;5234557;28;20033;-77
2023/08/07 03:22:13;;;;;;;;;;;;;;;15.30;100.00;101321.84;5233137;28;20029;-74
2023/08/07 03:24:48;;;;;;;13.33;4.23;;;;;;;14.94;100.00;101306.75;5252907;28;19915;-75
2023/08/07 03:27:19;;;;;;;8.37;3.37;;;;;;;14.78;100.00;101298.25;5248569;28;20426;-77
2023/08/07 03:29:50;;;;;;;12.10;3.83;;;;;;;14.84;100.00;101298.66;5233599;28;20029;-75
2023/08/07 03:32:22;;;;;;;9.53;3.93;;;;;;;14.67;100.00;101294.56;5234799;28;20056;-76
2023/08/07 03:34:53;;;;;;;9.57;3.17;;;;;;;14.66;100.00;101295.50;5233350;28;20391;-78
2023/08/07 03:37:24;;;;;;;9.50;3.03;;;;;;;14.71;100.00;101295.19;5234386;28;20033;-79
2023/08/07 03:39:56;;;;;;;12.77;3.43;;;;;;;14.72;100.00;101295.09;5242294;28;20025;-76
2023/08/07 03:42:27;;;;;;;9.20;3.67;;;;;;;14.68;100.00;101293.59;5252348;28;20737;-77
2023/08/07 03:44:58;;;;;;;12.77;3.80;;;;;;;14.68;100.00;101287.50;5255512;28;20064;-79
2023/08/07 03:47:29;;;;;;;12.37;3.30;;;;;;;14.62;100.00;101288.78;5255207;28;20702;-78
2023/08/07 03:50:01;;;;;;;11.03;3.07;;;;;;;14.75;100.00;101288.72;5252512;28;20033;-77
2023/08/07 03:52:32;;;;;;;10.30;4.10;;;;;;;14.71;100.00;101288.13;5255565;28;20028;-73
2023/08/07 03:55:04;;;;;;;9.00;3.50;;;;;;;14.65;100.00;101283.28;5254660;28;20158;-77
2023/08/07 03:57:35;;;;;;;8.73;3.33;;;;;;;14.66;100.00;101290.22;5236374;28;20032;-75
2023/08/07 04:00:07;;;;;;;13.07;3.37;;;;;;;14.71;100.00;101288.13;5251638;28;20024;-76
2023/08/07 04:02:39;;;;;;;10.27;3.10;;;;;;;14.70;100.00;101286.44;5211353;28;20022;-75
2023/08/07 04:05:10;;;;;;;9.90;3.63;;;;;;;14.80;100.00;101298.97;5213527;28;20083;-79
2023/08/07 04:07:42;;;;;;;11.57;3.40;;;;;;;14.67;100.00;101297.19;5213598;28;20061;-77
2023/08/07 04:10:13;;;;;;;6.93;3.17;;;;;;;14.80;100.00;101301.63;5214495;28;20030;-73
2023/08/07 04:12:44;;;;;;;13.03;3.90;;;;;;;14.75;100.00;101299.28;5233525;28;20022;-77
2023/08/07 04:15:16;;;;;;;12.73;3.70;;;;;;;14.79;100.00;101315.72;5231971;28;20053;-75
2023/08/07 04:17:47;;;;;;;13.77;3.87;;;;;;;14.72;100.00;101292.44;5252825;28;20107;-77
2023/08/07 04:20:20;;;;;;;13.13;3.50;;;;;;;14.75;100.00;101294.84;5254876;28;20025;-77
2023/08/07 04:22:51;;;;;;;15.87;3.50;;;;;;;14.77;100.00;101307.94;5248153;28;20026;-76
2023/08/07 04:25:22;;;;;;;13.60;4.20;;;;;;;14.71;100.00;101309.22;5232728;28;20029;-75
2023/08/07 04:27:54;;;;;;;11.83;3.80;;;;;;;14.72;100.00;101310.91;5231947;28;20037;-74
2023/08/07 04:30:25;;;;;;;11.53;3.57;;;;;;;14.72;100.00;101305.63;5232807;28;20060;-76
2023/08/07 04:32:56;;;;;;;13.63;4.37;;;;;;;14.74;100.00;101309.00;5247909;28;20029;-76
2023/08/07 04:35:28;;;;;;;10.97;4.37;;;;;;;14.67;100.00;101301.63;5244551;28;20056;-76
2023/08/07 04:38:01;;;;;;;12.53;3.40;;;;;;;14.71;100.00;101314.50;5253990;28;20029;-77
2023/08/07 04:40:32;;;;;;;10.23;3.40;;;;;;;14.63;100.00;101307.13;5253908;28;20108;-76
2023/08/07 04:43:03;;;;;;;11.37;4.37;;;;;;;14.59;100.00;101310.09;5253360;28;20563;-75
2023/08/07 04:45:35;;;;;;;11.73;3.27;;;;;;;14.51;100.00;101332.53;5253864;28;20024;-77
2023/08/07 04:48:07;;;;;;;14.43;3.57;;;;;;;14.53;100.00;101324.53;5248534;28;20025;-76
2023/08/07 04:50:38;;;;;;;11.77;3.77;;;;;;;14.46;100.00;101324.09;5233042;28;20029;-74
2023/08/07 04:53:10;;;;;;;8.67;3.73;;;;;;;14.44;100.00;101307.56;5233220;28;20022;-75
2023/08/07 04:55:41;;;;;;;9.73;2.90;;;;;;;14.56;100.00;101316.41;5233395;28;20030;-78
2023/08/07 04:58:12;;;;;;;8.47;3.47;;;;;;;14.43;100.00;101307.66;5236236;28;20040;-75
2023/08/07 05:00:44;;;;;;;7.43;2.83;;;;;;;14.60;100.00;101323.16;5252250;28;20476;-76
2023/08/07 05:03:15;;;;;;;10.70;2.77;;;;;;;14.63;100.00;101328.19;5236848;28;20020;-77
2023/08/07 05:05:46;;;;;;;11.10;3.00;;;;;;;14.61;100.00;101318.69;5253238;28;20044;-78
2023/08/07 05:08:18;;;;;;;9.27;2.50;;;;;;;14.70;100.00;101327.75;5239691;28;20486;-78
2023/08/07 05:10:49;;;;;;;9.43;2.77;;;;;;;14.61;100.00;101324.81;5231462;28;20052;-74
2023/08/07 05:13:20;;;;;;;10.60;2.73;;;;;;;14.64;100.00;101329.88;5247903;28;20029;-78
2023/08/07 05:15:51;;;;;;;9.70;2.80;;;;;;;14.58;100.00;101332.94;5248573;28;20108;-77
2023/08/07 05:18:23;;;;;;;11.43;2.57;;;;;;;14.50;100.00;101330.81;5232775;28;20543;-77
2023/08/07 05:20:54;;;;;;;12.53;3.37;;;;;;;14.61;100.00;101345.06;5232634;28;20036;-75
2023/08/07 05:23:25;;;;;;;7.53;2.27;;;;;;;14.57;100.00;101338.34;5232647;28;20029;-74
2023/08/07 05:25:57;;;;;;;14.73;3.30;;;;;;;14.64;100.00;101340.41;5231796;28;20108;-77
2023/08/07 05:28:28;;;;;;;10.23;2.73;;;;;;;14.66;100.00;101353.50;5231691;28;20040;-77
2023/08/07 05:31:00;;;;;;;9.03;2.60;;;;;;;14.60;100.00;101344.25;5232728;28;20781;-78
2023/08/07 05:33:31;;;;;;;13.17;3.53;;;;;;;14.58;100.00;101347.91;5231598;28;20045;-77
2023/08/07 05:36:02;;;;;;;9.03;3.43;;;;;;;14.54;100.00;101349.09;5231708;28;20033;-76
2023/08/07 05:38:34;;;;;;;14.77;3.50;;;;;;;14.61;100.00;101358.25;5232413;28;20128;-77
2023/08/07 05:41:05;;;;;;;16.53;4.00;;;;;;;14.65;100.00;101357.09;5231836;28;20114;-76
2023/08/07 05:43:36;;;;;;;9.73;3.30;;;;;;;14.70;100.00;101370.78;5229832;28;20051;-73
2023/08/07 05:46:08;;;;;;;18.03;3.67;;;;;;;14.64;100.00;101369.41;5231122;28;20033;-74
2023/08/07 05:48:39;;;;;;;12.43;2.83;;;;;;;14.61;100.00;101374.06;5231996;28;20041;-75
2023/08/07 05:51:11;;;;;;;12.13;3.83;;;;;;;14.69;100.00;101374.41;5231493;28;20048;-74
2023/08/07 05:53:42;;;;;;;10.27;2.77;;;;;;;14.73;100.00;101389.03;5230015;28;20380;-75
2023/08/07 05:56:13;;;;;;;8.87;2.60;;;;;;;14.62;100.00;101376.63;5230169;28;20037;-77
2023/08/07 05:58:45;;;;;;;9.47;3.03;;;;;;;14.62;100.00;101373.13;5231326;28;20707;-77
2023/08/07 06:01:17;;;;;;;9.90;3.17;;;;;;;14.64;100.00;101382.59;5231185;28;20125;-77
2023/08/07 06:03:48;;;;;;;10.43;3.57;;;;;;;14.64;100.00;101381.78;5231719;28;20033;-78
2023/08/07 06:06:20;;;;;;;8.70;3.03;;;;;;;14.74;100.00;101381.97;5230832;28;20095;-77
2023/08/07 06:08:51;;;;;;;13.93;3.10;;;;;;;14.78;100.00;101383.47;5232104;28;20045;-77
2023/08/07 06:11:23;;;;;;;10.93;2.97;;;;;;;14.79;100.00;101379.00;5231042;28;20033;-75
2023/08/07 06:13:54;;;;;;;12.87;3.10;;;;;;;14.85;100.00;101383.91;5231628;28;20033;-76
2023/08/07 06:16:27;;;;;;;14.27;3.30;;;;;;;14.83;100.00;101386.66;5227803;28;20029;-76
2023/08/07 06:18:58;;;;;;;7.67;3.10;;;;;;;14.87;100.00;101389.91;5234310;28;20048;-77
2023/08/07 06:21:29;;;;;;;13.80;3.87;;;;;;;14.94;100.00;101392.97;5252326;28;20029;-77
2023/08/07 06:24:01;;;;;;;17.23;3.10;;;;;;;14.96;100.00;101397.16;5242138;28;20018;-75
2023/08/07 06:26:32;;;;;;;11.83;3.47;;;;;;;15.01;100.00;101396.84;5234678;28;20033;-73
2023/08/07 06:29:04;;;;;;;14.40;3.70;;;;;;;15.05;100.00;101392.19;5236012;28;20526;-75
2023/08/07 06:31:35;;;;;;;10.33;2.90;;;;;;;15.12;100.00;101396.09;5236312;28;20032;-74
2023/08/07 06:34:06;;;;;;;12.67;2.73;;;;;;;15.30;100.00;101401.03;5222073;28;20033;-74
2023/08/07 06:36:38;;;;;;;12.77;3.10;;;;;;;15.32;100.00;101412.31;5220966;28;20591;-73
2023/08/07 06:39:09;;;;;;;10.97;2.70;;;;;;;15.38;100.00;101411.03;5222908;28;20037;-75
2023/08/07 06:41:40;;;;;;;9.83;2.63;;;;;;;15.35;100.00;101420.00;5230896;28;20033;-75
2023/08/07 06:44:12;;;;;;;11.63;3.07;;;;;;;15.38;100.00;101408.41;5224738;28;20064;-75
2023/08/07 06:46:43;;;;;;;13.80;2.63;;;;;;;15.45;100.00;101418.41;5234428;28;20025;-75
2023/08/07 06:49:14;;;;;;;9.90;2.70;;;;;;;15.57;100.00;101416.66;5235138;28;20029;-76
2023/08/07 06:51:46;;;;;;;13.80;3.43;;;;;;;15.56;100.00;101419.41;5235199;28;20025;-76
2023/08/07 06:54:17;;;;;;;14.07;2.60;;;;;;;15.59;100.00;101424.47;5247361;28;20120;-76
2023/08/07 06:56:49;;;;;;;10.00;3.10;;;;;;;15.62;100.00;101416.34;5239787;28;20083;-76
2023/08/07 06:59:20;;;;;;;7.77;2.33;;;;;;;15.73;100.00;101424.31;5233991;28;20414;-76
2023/08/07 07:01:52;;;;;;;14.90;2.90;;;;;;;15.74;100.00;101419.91;5229051;28;20046;-73
2023/08/07 07:04:23;;;;;;;12.80;2.70;;;;;;;15.96;100.00;101427.09;5229953;28;20103;-74
2023/08/07 07:06:55;;;;;;;9.27;2.33;;;;;;;16.12;100.00;101431.25;5234266;28;20504;-73
2023/08/07 07:09:28;;;;;;;14.10;3.30;;;;;;;16.10;100.00;101430.53;5239155;28;20029;-71
2023/08/07 07:11:59;;;;;;;15.90;2.90;;;;;;;16.25;100.00;101428.53;5231732;28;20029;-73
2023/08/07 07:14:33;;;;;;;10.07;2.50;;;;;;;16.52;100.00;101431.84;5233808;28;20022;-76
2023/08/07 07:17:05;;;;;;;10.32;3.00;;;;;;;16.56;100.00;101439.44;5232261;28;20029;-75
2023/08/07 07:19:36;;;;;;;11.73;2.67;;;;;;;16.56;100.00;101442.06;5233742;28;20087;-75
2023/08/07 07:22:07;;;;;;;13.90;3.63;;;;;;;16.53;100.00;101449.41;5232741;28;20159;-76
2023/08/07 07:24:39;;;;;;;14.73;3.60;;;;;;;16.54;100.00;101459.88;5233746;28;20542;-76
2023/08/07 07:27:10;;;;;;;16.47;3.70;;;;;;;16.50;100.00;101460.19;5232928;28;20026;-77
2023/08/07 07:29:42;;;;;;;11.20;2.73;;;;;;;16.48;100.00;101454.22;5232478;28;20060;-73
2023/08/07 07:32:13;;;;;;;8.13;2.37;;;;;;;16.48;100.00;101456.84;5233747;28;20082;-72
2023/08/07 07:34:44;;;;;;;7.33;2.57;;;;;;;16.56;100.00;101465.03;5233622;28;20064;-74
2023/08/07 07:37:16;;;;;;;10.77;2.73;;;;;;;16.60;100.00;101474.41;5232605;28;20033;-74
2023/08/07 07:39:48;;;;;;;9.07;2.37;;;;;;;16.51;100.00;101462.72;5233129;28;20033;-74
2023/08/07 07:42:19;;;;;;;9.33;2.97;;;;;;;16.65;100.00;101474.91;5232841;28;20029;-75
2023/08/07 07:44:50;;;;;;;9.03;2.63;;;;;;;16.71;100.00;101470.09;5232850;28;20063;-73
2023/08/07 07:47:22;;;;;;;11.70;3.00;;;;;;;16.83;100.00;101479.75;5252308;28;20107;-74
2023/08/07 07:50:08;;;;;;;10.43;2.47;;;;;;;17.09;100.00;101468.97;5254447;28;20484;-74
2023/08/07 07:52:39;;;;;;;10.90;2.93;;;;;;;16.90;100.00;101467.75;5253830;28;20036;-72
2023/08/07 07:55:12;;;;;;;10.30;2.00;;;;;;;16.87;100.00;101483.84;5213325;28;20026;-75
2023/08/07 07:57:43;;;;;;;9.43;2.40;;;;;;;16.81;100.00;101482.53;5231107;28;20037;-73
2023/08/07 08:00:15;;;;;;;8.97;2.17;;;;;;;16.87;100.00;101488.31;5225618;28;20428;-73
2023/08/07 08:02:46;;;;;;;9.23;3.20;;;;;;;16.90;100.00;101488.91;5231683;28;20112;-72
2023/08/07 08:05:17;;;;;;;12.77;2.90;;;;;;;17.10;100.00;101498.94;5230956;28;20029;-73
2023/08/07 08:07:49;;;;;;;12.83;4.10;;;;;;;17.23;100.00;101498.81;5231971;28;20610;-74
2023/08/07 08:10:20;;;;;;;10.33;2.30;;;;;;;17.51;100.00;101486.91;5223002;28;20030;-75
2023/08/07 08:12:51;;;;;;;10.23;2.80;;;;;;;18.24;100.00;101482.03;5211255;28;20026;-75
2023/08/07 08:15:23;;;;;;;9.07;2.40;;;;;;;18.99;100.00;101489.94;5211794;28;20129;-74
2023/08/07 08:17:54;;;;;;;9.03;2.53;;;;;;;19.93;100.00;101500.47;5212818;28;20037;-75
2023/08/07 08:20:25;;;;;;;10.50;3.30;;;;;;;20.66;100.00;101505.53;5231871;28;20104;-75
2023/08/07 08:22:57;;;;;;;6.55;2.00;;;;;;;21.26;100.00;101501.72;5231674;28;20115;-75
2023/08/07 08:25:28;;;;;;;9.25;2.22;;;;;;;22.29;100.00;101500.81;5231267;28;20057;-75
2023/08/07 08:28:00;;;;;;;9.80;2.65;;;;;;;22.81;100.00;101491.22;5242565;28;20032;-75
2023/08/07 08:30:31;;;;;;;10.98;2.25;;;;;;;23.33;100.00;101502.81;5253548;28;20036;-75
2023/08/07 08:33:03;;;;;;;10.75;2.67;;;;;;;23.11;100.00;101510.38;5232940;28;20025;-73
2023/08/07 08:35:34;;;;;;;7.85;2.05;;;;;;;23.33;100.00;101502.81;5231157;28;20048;-74
2023/08/07 08:38:06;;;;;;;5.57;2.20;;;;;;;23.09;100.00;101512.41;5229269;28;20038;-75
2023/08/07 08:40:38;;;;;;;5.53;1.70;;;;;;;23.20;100.00;101509.44;5212509;28;20555;-74
2023/08/07 08:43:12;;;;;;;7.30;1.50;;;;;;;24.13;100.00;101519.41;5211530;28;20081;-74
2023/08/07 08:45:44;;;;;;;6.28;1.85;;;;;;;24.49;100.00;101517.44;5232441;28;20385;-75
2023/08/07 08:48:21;;;;;;;6.03;1.85;;;;;;;24.33;93.09;101519.09;5231716;28;20036;-77
2023/08/07 08:50:54;;;;;;;9.48;2.03;;;;;;;24.41;81.00;101521.78;5230656;28;20029;-75
2023/08/07 08:53:25;;;;;;;10.52;1.95;;;;;;;23.95;76.61;101529.44;5232934;28;20033;-79
2023/08/07 08:55:57;;;;;;;9.00;2.25;;;;;;;23.57;74.11;101525.31;5231384;28;20041;-81
2023/08/07 08:58:29;;;;;;;7.90;1.52;;;;;;;23.71;75.15;101526.53;5231887;28;20064;-77
2023/08/07 09:01:01;;;;;;;5.93;1.92;;;;;;;24.27;70.06;101533.16;5218656;28;20068;-71
2023/08/07 09:03:32;;;;;;;7.93;1.88;;;;;;;25.09;67.60;101538.59;5220556;28;20067;-73
2023/08/07 09:06:06;;;;;;;7.30;1.77;;;;;;;25.46;48.69;101529.09;5220775;28;20046;-72
2023/08/07 09:08:40;;;;;;;5.18;1.48;;;;;;;26.09;43.45;101533.56;5222110;28;20029;-76
2023/08/07 09:11:13;;;;;;;4.05;1.83;;;;;;;25.82;41.32;101533.09;5237763;28;20056;-73
2023/08/07 09:13:47;;;;;;;7.88;1.80;;;;;;;26.68;43.91;101541.19;5225914;28;20189;-75
2023/08/07 09:16:19;;;;;;;11.63;2.33;;;;;;;26.28;41.95;101534.13;5231295;28;20033;-76
2023/08/07 09:18:51;;;;;;;5.10;1.92;;;;;;;25.77;44.58;101551.56;5230594;28;20017;-75
2023/08/07 09:21:22;;;;;;;5.20;1.75;;;;;;;25.42;45.21;101554.56;5231026;28;20029;-80
2023/08/07 09:23:54;;;;;;;6.95;2.05;;;;;;;24.83;46.30;101545.00;5239992;28;20455;-79
2023/08/07 09:26:25;;;;;;;8.88;2.38;;;;;;;25.70;46.67;101545.25;5228236;28;20049;-82
2023/08/07 09:28:57;;;;;;;5.55;1.33;;;;;;;26.14;46.00;101556.38;5227801;28;20043;-75
2023/08/07 09:31:30;;;;;;;6.03;2.63;;;;;;;26.79;42.36;101540.72;5238591;28;20037;-79
2023/08/07 09:34:03;;;;;;;8.18;1.70;;;;;;;27.32;42.07;101552.44;5229667;28;20730;-76
2023/08/07 09:36:35;;;;;;;5.03;1.65;;;;;;;27.13;40.01;101548.47;5230546;28;20431;-77
2023/08/07 09:39:07;;;;;;;5.75;1.50;;;;;;;27.73;37.13;101548.41;5229821;28;20088;-81
2023/08/07 09:41:38;;;;;;;5.88;1.70;;;;;;;28.42;37.21;101549.88;5232276;28;20116;-85
2023/08/07 09:44:13;;;;;;;3.90;1.38;;;;;;;28.42;37.93;101553.41;5231715;28;20092;-82
2023/08/07 09:46:45;;;;;;;7.53;1.60;;;;;;;28.41;37.42;101551.75;5234751;28;20029;-89
2023/08/07 09:49:16;;;;;;;4.88;2.10;;;;;;;27.88;35.91;101561.81;5235157;28;20025;-81
2023/08/07 09:51:50;;;;;;;6.90;2.45;;;;;;;27.70;36.74;101553.34;5233457;28;20036;-76
2023/08/07 09:54:21;;;;;;;6.10;1.67;;;;;;;28.52;36.72;101565.72;5231258;28;20033;-77
2023/08/07 09:56:56;;;;;;;5.63;1.83;;;;;;;29.17;35.14;101567.41;5230435;28;20044;-77
2023/08/07 09:59:27;;;;;;;5.68;2.10;;;;;;;29.41;33.67;101566.06;5232151;28;20078;-75
2023/08/07 10:02:03;;;;;;;4.10;1.70;;;;;;;29.87;34.03;101571.84;5234750;28;20026;-82
2023/08/07 10:04:35;;;;;;;8.05;2.05;;;;;;;29.77;32.13;101571.41;5232187;28;20068;-78
2023/08/07 10:07:06;;;;;;;5.45;1.60;;;;;;;30.07;33.01;101573.75;5230079;28;20041;-78
2023/08/07 10:09:38;;;;;;;7.38;1.90;;;;;;;29.74;31.78;101579.91;5230762;28;20030;-74
2023/08/07 10:12:10;;;;;;;5.03;1.77;;;;;;;29.95;32.39;101581.63;5229802;28;20025;-78
2023/08/07 10:14:42;;;;;;;6.57;1.63;;;;;;;30.95;32.67;101578.34;5227939;28;20037;-78
2023/08/07 10:17:13;;;;;;;9.10;2.08;;;;;;;30.55;31.75;101590.84;5236101;28;20040;-74
2023/08/07 10:19:45;;;;;;;6.53;1.30;;;;;;;31.21;29.32;101590.94;5228715;28;20468;-74
2023/08/07 10:22:17;;;;;;;5.32;1.75;;;;;;;31.34;29.29;101576.56;5230649;28;20041;-74
2023/08/07 10:24:49;;;;;;;5.82;1.63;;;;;;;32.09;28.99;101587.03;5231869;28;20017;-75
2023/08/07 10:27:25;;;;;;;5.00;1.33;;;;;;;31.92;28.25;101581.28;5229488;28;20076;-76
2023/08/07 10:29:58;;;;;;;4.93;1.63;;;;;;;31.55;27.74;101579.19;5232235;28;20041;-79
2023/08/07 10:32:31;;;;;;;4.18;1.30;;;;;;;31.96;29.26;101590.63;5229216;28;20419;-78
2023/08/07 10:35:06;;;;;;;4.22;1.55;;;;;;;30.82;28.08;101590.00;5231695;28;20025;-80
2023/08/07 10:37:42;;;;;;;3.65;1.63;;;;;;;31.91;28.77;101595.88;5226841;28;20041;-80
2023/08/07 10:40:13;;;;;;;5.22;1.92;;;;;;;31.42;28.53;101591.72;5230797;28;20029;-76
2023/08/07 10:42:54;;;;;;;5.18;1.27;;;;;;;31.14;29.43;101593.69;5230134;28;20028;-76
2023/08/07 10:45:27;;;;;;;5.80;1.77;;;;;;;30.21;30.06;101608.88;5226981;28;20476;-77
2023/08/07 10:48:04;;;;;;;;;;;;;;;32.01;31.11;101604.38;5231250;28;20498;-76
2023/08/07 10:50:57;;;;;;;6.78;1.75;;;;;;;31.02;31.60;101592.66;5230776;28;20275;-74
2023/08/07 10:53:34;;;;;;;4.97;1.70;;;;;;;31.50;29.01;101596.09;5229757;28;20040;-75
2023/08/07 10:56:09;;;;;;;4.22;1.88;;;;;;;31.48;26.34;101600.88;5228853;28;20108;-76
2023/08/07 10:58:40;;;;;;;5.45;2.15;;;;;;;31.58;26.99;101600.41;5228995;28;20052;-77
2023/08/07 11:01:19;;;;;;;4.82;1.75;;;;;;;31.94;28.17;101620.63;5225275;28;20037;-76
2023/08/07 11:03:55;;;;;;;3.95;1.60;;;;;;;31.33;27.55;101614.66;5235008;28;20491;-76
2023/08/07 11:06:32;;;;;;;3.72;1.23;;;;;;;31.41;27.81;101610.88;5243109;28;20103;-74
2023/08/07 11:09:06;;;;;;;4.45;1.70;;;;;;;31.07;27.21;101608.28;5228827;28;20484;-75
2023/08/07 11:11:42;;;;;;;4.15;1.25;;;;;;;30.41;28.25;101611.63;5241511;28;20032;-76
2023/08/07 11:14:16;;;;;;;4.03;1.77;;;;;;;30.85;27.97;101597.69;5239542;28;20033;-75
2023/08/07 11:16:48;;;;;;;3.47;1.50;;;;;;;30.24;28.53;101614.72;5232266;28;20104;-76
2023/08/07 11:19:19;;;;;;;4.70;1.67;;;;;;;30.50;29.12;101598.72;5230791;28;20539;-85
2023/08/07 11:21:51;;;;;;;11.32;2.42;;;;;;;30.09;29.21;101612.19;5233154;28;20053;-81
2023/08/07 11:24:22;;;;;;;5.40;1.90;;;;;;;29.89;29.10;101610.28;5233675;28;20075;-79
2023/08/07 11:26:56;;;;;;;8.50;1.67;;;;;;;29.47;32.33;101611.13;5232796;28;20069;-82
2023/08/07 11:29:28;;;;;;;4.90;1.63;;;;;;;29.50;30.63;101603.69;5232542;28;20116;-80
2023/08/07 11:31:59;;;;;;;4.65;1.75;;;;;;;29.99;30.11;101606.38;5255032;28;20100;-76
2023/08/07 11:34:30;;;;;;;3.67;1.70;;;;;;;30.36;30.02;101596.03;5244143;28;20709;-76
2023/08/07 11:37:03;;;;;;;4.88;1.60;;;;;;;29.54;30.08;101603.06;5232791;28;20072;-76
2023/08/07 11:39:41;;;;;;;5.32;1.75;;;;;;;29.70;30.23;101614.56;5233263;28;20079;-74